Time;durP1;ratioP1;P1;durP2;ratioP2;P2;SDS_P1;SDS_P2;PMS_P1;PMS_P2;Temp;Humidity;BMP_temperature;BMP_pressure;BME280_temperature;BME280_humidity;BME280_pressure;Samples;Min_cycle;Max_cycle;Signal;HPM_P1;HPM_P2
2022/07/19 00:02:02;;;;;;;6.03;4.55;;;;;;;;;;4908303;29;20711;-74
2022/07/19 00:04:30;;;;;;;5.25;4.75;;;;;;;;;;4894769;29;20267;-74
2022/07/19 00:06:58;;;;;;;6.55;5.13;;;;;;;;;;4909451;29;20221;-74
2022/07/19 00:09:24;;;;;;;5.60;4.90;;;;;;;;;;4910192;29;20232;-73
2022/07/19 00:11:51;;;;;;;5.50;4.45;;;;;;;;;;4924502;29;20240;-73
2022/07/19 00:14:21;;;;;;;6.88;4.70;;;;;;;;;;4909975;29;20229;-73
2022/07/19 00:16:47;;;;;;;6.25;4.72;;;;;;;;;;4909315;29;20504;-74
2022/07/19 00:19:15;;;;;;;5.50;5.03;;;;;;;;;;4900214;29;20241;-73
2022/07/19 00:21:43;;;;;;;5.50;5.00;;;;;;;;;;4907970;29;20233;-72
2022/07/19 00:24:11;;;;;;;5.65;5.10;;;;;;;;;;4895053;29;20244;-73
2022/07/19 00:26:41;;;;;;;6.07;5.22;;;;;;;;;;4926090;29;20232;-72
2022/07/19 00:29:07;;;;;;;5.63;5.22;;;;;;;;;;4908991;29;20282;-74
2022/07/19 00:31:32;;;;;;;5.63;5.13;;;;;;;;;;4907391;29;20237;-74
2022/07/19 00:33:58;;;;;;;6.28;5.15;;;;;;;;;;4910595;29;20328;-74
2022/07/19 00:36:23;;;;;;;6.65;4.95;;;;;;;;;;4893007;29;20229;-73
2022/07/19 00:38:49;;;;;;;5.97;5.13;;;;;;;;;;4913973;29;20623;-73
2022/07/19 00:41:16;;;;;;;7.85;5.07;;;;;;;;;;4913050;29;20738;-74
2022/07/19 00:43:44;;;;;;;5.90;5.30;;;;;;;;;;4926014;29;20321;-73
2022/07/19 00:46:13;;;;;;;6.95;5.47;;;;;;;;;;4893722;29;20588;-73
2022/07/19 00:48:40;;;;;;;6.95;5.47;;;;;;;;;;4925161;29;20305;-73
2022/07/19 00:51:06;;;;;;;7.07;5.38;;;;;;;;;;4907331;29;20229;-73
2022/07/19 00:53:34;;;;;;;6.15;5.57;;;;;;;;;;4893957;29;20814;-73
2022/07/19 00:55:59;;;;;;;6.13;5.55;;;;;;;;;;4900195;29;20230;-74
2022/07/19 00:58:25;;;;;;;6.05;5.45;;;;;;;;;;4908738;29;20647;-74
2022/07/19 01:00:53;;;;;;;5.53;5.03;;;;;;;;;;4892852;29;20285;-73
2022/07/19 01:03:21;;;;;;;6.40;5.80;;;;;;;;;;4893488;29;20273;-72
2022/07/19 01:05:46;;;;;;;6.15;5.13;;;;;;;;;;4891853;29;20242;-73
2022/07/19 01:08:12;;;;;;;6.00;5.47;;;;;;;;;;4899699;29;20221;-74
2022/07/19 01:10:37;;;;;;;5.55;5.05;;;;;;;;;;4925277;29;20311;-74
2022/07/19 01:13:03;;;;;;;6.10;5.43;;;;;;;;;;4892820;29;20292;-73
2022/07/19 01:15:28;;;;;;;6.25;5.50;;;;;;;;;;4924476;29;20270;-73
2022/07/19 01:17:54;;;;;;;5.72;5.28;;;;;;;;;;4902003;29;20766;-73
2022/07/19 01:20:23;;;;;;;5.15;4.70;;;;;;;;;;4892735;29;20610;-73
2022/07/19 01:22:48;;;;;;;6.03;5.53;;;;;;;;;;4908423;29;20896;-73
2022/07/19 01:25:16;;;;;;;5.30;4.80;;;;;;;;;;4924127;29;20233;-73
2022/07/19 01:27:48;;;;;;;5.93;5.30;;;;;;;;;;4909512;29;20239;-73
2022/07/19 01:30:20;;;;;;;6.00;5.40;;;;;;;;;;4921248;29;20232;-73
2022/07/19 01:32:48;;;;;;;6.63;5.80;;;;;;;;;;4921810;29;20251;-73
2022/07/19 01:35:14;;;;;;;6.00;5.43;;;;;;;;;;4907091;29;20341;-73
2022/07/19 01:37:40;;;;;;;6.40;5.80;;;;;;;;;;4889313;29;20261;-73
2022/07/19 01:40:09;;;;;;;6.05;5.00;;;;;;;;;;4889029;29;20703;-74
2022/07/19 01:42:38;;;;;;;6.60;5.50;;;;;;;;;;4919791;29;20240;-73
2022/07/19 01:45:09;;;;;;;7.72;5.53;;;;;;;;;;4903355;29;20234;-73
2022/07/19 01:47:37;;;;;;;6.07;5.50;;;;;;;;;;4890890;29;20232;-73
2022/07/19 01:50:05;;;;;;;6.40;5.63;;;;;;;;;;4890864;29;20279;-74
2022/07/19 01:52:34;;;;;;;6.43;5.03;;;;;;;;;;4896935;29;20715;-73
2022/07/19 01:55:02;;;;;;;5.82;5.22;;;;;;;;;;4906783;29;20232;-73
2022/07/19 01:57:28;;;;;;;6.28;5.68;;;;;;;;;;4922302;29;20231;-73
2022/07/19 01:59:54;;;;;;;6.50;5.85;;;;;;;;;;4913382;29;20224;-72
2022/07/19 02:02:22;;;;;;;5.93;5.43;;;;;;;;;;4906635;29;20682;-73
2022/07/19 02:04:50;;;;;;;6.45;5.60;;;;;;;;;;4893968;29;20244;-73
2022/07/19 02:07:18;;;;;;;5.80;5.20;;;;;;;;;;4908067;29;20240;-73
2022/07/19 02:09:43;;;;;;;5.97;5.38;;;;;;;;;;4906341;29;20614;-72
2022/07/19 02:12:09;;;;;;;6.50;4.93;;;;;;;;;;4922070;29;20235;-73
2022/07/19 02:14:34;;;;;;;7.05;5.20;;;;;;;;;;4900939;29;20244;-73
2022/07/19 02:17:02;;;;;;;6.50;5.38;;;;;;;;;;4900199;29;20225;-73
2022/07/19 02:19:28;;;;;;;6.13;5.60;;;;;;;;;;4892567;29;20697;-73
2022/07/19 02:21:53;;;;;;;6.00;5.05;;;;;;;;;;4923369;29;20240;-73
2022/07/19 02:24:22;;;;;;;5.80;5.30;;;;;;;;;;4891369;29;20235;-73
2022/07/19 02:26:50;;;;;;;8.10;5.18;;;;;;;;;;4885074;29;20315;-73
2022/07/19 02:29:15;;;;;;;7.15;5.28;;;;;;;;;;4887738;29;20235;-73
2022/07/19 02:31:41;;;;;;;6.95;5.20;;;;;;;;;;4922608;29;20248;-73
2022/07/19 02:34:07;;;;;;;5.68;5.10;;;;;;;;;;4922391;29;20225;-73
2022/07/19 02:36:32;;;;;;;5.50;5.05;;;;;;;;;;4923300;29;20224;-73
2022/07/19 02:39:00;;;;;;;5.35;4.85;;;;;;;;;;4922658;29;20301;-73
2022/07/19 02:41:28;;;;;;;5.80;4.80;;;;;;;;;;4905973;29;21057;-73
2022/07/19 02:43:56;;;;;;;5.55;4.63;;;;;;;;;;4906290;29;20229;-73
2022/07/19 02:46:21;;;;;;;5.93;5.15;;;;;;;;;;4925267;29;20280;-73
2022/07/19 02:48:51;;;;;;;5.65;5.03;;;;;;;;;;4913408;29;20228;-73
2022/07/19 02:51:17;;;;;;;5.40;4.95;;;;;;;;;;4889709;29;20695;-73
2022/07/19 02:53:45;;;;;;;6.88;5.20;;;;;;;;;;4923349;29;20330;-73
2022/07/19 02:56:13;;;;;;;5.72;5.13;;;;;;;;;;4896609;29;20229;-73
2022/07/19 02:58:45;;;;;;;5.95;5.35;;;;;;;;;;4898348;29;20224;-72
2022/07/19 03:01:10;;;;;;;6.13;5.63;;;;;;;;;;4901367;29;20224;-75
2022/07/19 03:03:47;;;;;;;5.85;5.35;;;;;;;;;;4908723;29;20228;-72
2022/07/19 03:06:13;;;;;;;6.13;4.88;;;;;;;;;;4905648;29;20292;-72
2022/07/19 03:08:40;;;;;;;5.50;5.00;;;;;;;;;;4891750;29;20225;-73
2022/07/19 03:11:06;;;;;;;5.53;5.03;;;;;;;;;;4921787;29;20236;-73
2022/07/19 03:13:34;;;;;;;6.18;5.57;;;;;;;;;;4902268;29;20711;-72
2022/07/19 03:15:59;;;;;;;5.70;5.30;;;;;;;;;;4901211;29;20783;-72
2022/07/19 03:21:21;;;;;;;6.00;5.40;;;;;;;;;;4883404;29;20613;-83
2022/07/19 03:23:47;;;;;;;6.03;5.53;;;;;;;;;;4903626;29;20233;-82
2022/07/19 03:26:14;;;;;;;6.10;5.50;;;;;;;;;;4861320;29;20290;-82
2022/07/19 03:28:42;;;;;;;5.82;5.32;;;;;;;;;;4851578;29;20276;-83
2022/07/19 03:31:10;;;;;;;6.47;5.78;;;;;;;;;;4846722;29;20237;-83
2022/07/19 03:33:36;;;;;;;6.18;5.68;;;;;;;;;;4867524;29;20308;-83
2022/07/19 03:36:04;;;;;;;6.85;5.72;;;;;;;;;;4853485;29;20306;-82
2022/07/19 03:39:28;;;;;;;6.45;5.85;;;;;;;;;;4872745;29;20216;-83
2022/07/19 03:41:54;;;;;;;6.90;5.43;;;;;;;;;;4874664;29;20236;-83
2022/07/19 03:44:19;;;;;;;6.35;5.60;;;;;;;;;;4875146;29;20237;-83
2022/07/19 03:46:47;;;;;;;6.07;5.47;;;;;;;;;;4878090;29;20237;-83
2022/07/19 03:49:13;;;;;;;7.37;5.90;;;;;;;;;;4856372;29;20237;-83
2022/07/19 03:51:40;;;;;;;6.13;5.50;;;;;;;;;;4857162;29;20642;-83
2022/07/19 03:54:08;;;;;;;6.03;5.53;;;;;;;;;;4862526;29;20229;-83
2022/07/19 03:56:34;;;;;;;6.15;5.53;;;;;;;;;;4860741;29;20261;-83
2022/07/19 03:58:59;;;;;;;5.80;5.30;;;;;;;;;;4854573;29;20226;-82
2022/07/19 04:01:25;;;;;;;6.13;5.53;;;;;;;;;;4852281;29;20227;-84
2022/07/19 04:03:53;;;;;;;5.90;5.40;;;;;;;;;;4869568;29;20240;-83
2022/07/19 04:06:23;;;;;;;5.82;5.32;;;;;;;;;;4851181;29;20218;-84
2022/07/19 04:08:53;;;;;;;6.20;5.65;;;;;;;;;;4857904;29;20222;-85
2022/07/19 04:11:19;;;;;;;6.38;5.72;;;;;;;;;;4882453;29;20264;-82
2022/07/19 04:13:44;;;;;;;6.38;5.57;;;;;;;;;;4854537;29;20313;-83
2022/07/19 04:16:12;;;;;;;6.78;5.47;;;;;;;;;;4859704;29;20228;-83
2022/07/19 04:18:38;;;;;;;6.40;5.50;;;;;;;;;;4883530;29;20233;-83
2022/07/19 04:21:07;;;;;;;7.10;5.43;;;;;;;;;;4841816;29;20624;-83
2022/07/19 04:23:39;;;;;;;6.70;5.35;;;;;;;;;;4862982;29;20297;-83
2022/07/19 04:26:07;;;;;;;5.78;4.88;;;;;;;;;;4857121;29;20239;-83
2022/07/19 04:28:35;;;;;;;6.05;5.10;;;;;;;;;;4884882;29;20312;-83
2022/07/19 04:31:01;;;;;;;5.88;4.53;;;;;;;;;;4868919;29;20237;-84
2022/07/19 04:33:29;;;;;;;5.30;4.80;;;;;;;;;;4856772;29;20225;-84
2022/07/19 04:35:54;;;;;;;5.22;4.50;;;;;;;;;;4849869;29;20712;-84
2022/07/19 04:38:22;;;;;;;8.60;5.20;;;;;;;;;;4865595;29;20239;-83
2022/07/19 04:40:50;;;;;;;5.68;5.15;;;;;;;;;;4866991;29;20308;-83
2022/07/19 04:43:16;;;;;;;5.50;5.10;;;;;;;;;;4877008;29;20229;-85
2022/07/19 04:45:44;;;;;;;6.32;5.55;;;;;;;;;;4860738;29;20226;-85
2022/07/19 04:48:09;;;;;;;6.00;5.40;;;;;;;;;;4862780;29;20290;-83
2022/07/19 04:50:38;;;;;;;5.85;5.30;;;;;;;;;;4853752;29;20367;-84
2022/07/19 04:53:03;;;;;;;6.00;5.40;;;;;;;;;;4886579;29;20301;-83
2022/07/19 04:55:29;;;;;;;5.97;5.43;;;;;;;;;;4856635;29;20595;-84
2022/07/19 04:57:59;;;;;;;7.82;5.75;;;;;;;;;;4874206;29;20252;-84
2022/07/19 05:00:27;;;;;;;5.70;5.22;;;;;;;;;;4878720;29;20734;-85
2022/07/19 05:02:55;;;;;;;5.15;4.65;;;;;;;;;;4855901;29;20241;-84
2022/07/19 05:05:23;;;;;;;5.97;5.32;;;;;;;;;;4851915;29;20388;-84
2022/07/19 05:07:49;;;;;;;6.13;4.93;;;;;;;;;;4898290;29;20261;-83
2022/07/19 05:10:14;;;;;;;6.55;4.88;;;;;;;;;;4864007;29;20263;-84
2022/07/19 05:12:43;;;;;;;5.68;4.70;;;;;;;;;;4853935;29;20297;-84
2022/07/19 05:15:09;;;;;;;5.65;5.10;;;;;;;;;;4855577;29;20253;-83
2022/07/19 05:17:37;;;;;;;5.65;4.90;;;;;;;;;;4869075;29;20281;-82
2022/07/19 05:20:04;;;;;;;5.53;4.78;;;;;;;;;;4868637;29;20241;-82
2022/07/19 05:22:29;;;;;;;5.25;4.72;;;;;;;;;;4862032;29;20262;-83
2022/07/19 05:24:55;;;;;;;5.38;4.95;;;;;;;;;;4887201;29;20241;-82
2022/07/19 05:27:43;;;;;;;5.68;5.18;;;;;;;;;;4861993;29;20256;-82
2022/07/19 05:30:11;;;;;;;4.97;4.57;;;;;;;;;;4857700;29;20298;-83
2022/07/19 05:32:37;;;;;;;5.63;5.07;;;;;;;;;;4867902;29;20258;-83
2022/07/19 05:35:05;;;;;;;5.90;5.38;;;;;;;;;;4866683;29;20265;-83
2022/07/19 05:37:33;;;;;;;5.75;5.10;;;;;;;;;;4851305;29;20242;-83
2022/07/19 05:40:01;;;;;;;5.53;5.03;;;;;;;;;;4883221;29;20221;-83
2022/07/19 05:42:29;;;;;;;6.85;4.95;;;;;;;;;;4880742;29;20226;-82
2022/07/19 05:44:57;;;;;;;5.30;4.90;;;;;;;;;;4874585;29;20229;-85
2022/07/19 05:47:25;;;;;;;5.70;4.93;;;;;;;;;;4861963;29;20218;-81
2022/07/19 05:49:51;;;;;;;5.03;4.53;;;;;;;;;;4875563;29;20228;-83
2022/07/19 05:52:19;;;;;;;5.28;4.78;;;;;;;;;;4877906;29;20221;-83
2022/07/19 05:54:46;;;;;;;6.28;4.80;;;;;;;;;;4862831;29;20238;-83
2022/07/19 06:01:19;;;;;;;5.63;4.72;;;;;;;;;;4901463;23;20290;-74
2022/07/19 06:03:51;;;;;;;4.97;4.28;;;;;;;;;;4911697;29;20228;-73
2022/07/19 06:06:22;;;;;;;4.80;4.40;;;;;;;;;;4911990;28;20231;-74
2022/07/19 06:08:48;;;;;;;4.88;4.53;;;;;;;;;;4891297;29;20259;-74
2022/07/19 06:11:15;;;;;;;4.93;4.43;;;;;;;;;;4909248;28;20215;-74
2022/07/19 06:13:46;;;;;;;5.25;4.47;;;;;;;;;;4896660;29;20228;-73
2022/07/19 06:16:17;;;;;;;5.45;4.60;;;;;;;;;;4917074;23;20231;-84
2022/07/19 06:18:47;;;;;;;6.07;4.50;;;;;;;;;;4930185;28;20256;-83
2022/07/19 06:21:17;;;;;;;5.00;4.15;;;;;;;;;;4920994;28;20232;-84
2022/07/19 06:23:43;;;;;;;5.35;4.43;;;;;;;;;;4901759;29;20235;-83
2022/07/19 06:26:11;;;;;;;7.97;4.30;;;;;;;;;;4919382;28;20219;-84
2022/07/19 06:28:36;;;;;;;5.47;4.43;;;;;;;;;;4920402;29;20275;-83
2022/07/19 06:31:04;;;;;;;5.35;4.85;;;;;;;;;;4898896;29;20219;-83
2022/07/19 06:33:30;;;;;;;6.82;4.13;;;;;;;;;;4895877;29;20228;-84
2022/07/19 06:35:55;;;;;;;7.13;4.35;;;;;;;;;;4913538;29;20631;-83
2022/07/19 06:38:23;;;;;;;4.32;3.92;;;;;;;;;;4931819;29;20880;-83
2022/07/19 06:40:51;;;;;;;5.13;4.18;;;;;;;;;;4909084;29;20235;-83
2022/07/19 06:43:19;;;;;;;4.30;3.88;;;;;;;;;;4927223;28;20290;-83
2022/07/19 06:45:59;;;;;;;6.03;3.95;;;;;;;;;;4913598;29;20709;-83
2022/07/19 06:48:29;;;;;;;4.82;3.55;;;;;;;;;;4934085;29;20287;-84
2022/07/19 06:50:54;;;;;;;4.88;3.83;;;;;;;;;;4919327;29;20655;-82
2022/07/19 06:53:22;;;;;;;3.90;3.40;;;;;;;;;;4904626;28;20238;-83
2022/07/19 06:55:50;;;;;;;4.57;3.60;;;;;;;;;;4919568;29;20235;-84
2022/07/19 06:58:18;;;;;;;5.00;4.10;;;;;;;;;;4901989;28;20235;-82
2022/07/19 07:00:44;;;;;;;4.25;3.60;;;;;;;;;;4919839;29;20232;-82
2022/07/19 07:03:09;;;;;;;4.38;3.63;;;;;;;;;;4917114;28;20223;-82
2022/07/19 07:05:35;;;;;;;3.45;3.15;;;;;;;;;;4926542;29;20250;-82
2022/07/19 07:08:03;;;;;;;3.78;3.10;;;;;;;;;;4916015;29;20234;-82
2022/07/19 07:10:29;;;;;;;4.85;2.95;;;;;;;;;;4917803;29;20223;-82
2022/07/19 07:12:54;;;;;;;4.22;2.95;;;;;;;;;;4935826;29;20259;-82
2022/07/19 07:15:20;;;;;;;5.28;2.80;;;;;;;;;;4920846;28;20227;-83
2022/07/19 07:17:45;;;;;;;3.45;3.15;;;;;;;;;;4918828;29;20230;-83
2022/07/19 07:20:11;;;;;;;2.92;2.63;;;;;;;;;;4933176;28;20223;-83
2022/07/19 07:22:39;;;;;;;3.45;2.85;;;;;;;;;;4906344;29;20231;-83
2022/07/19 07:25:08;;;;;;;3.00;2.70;;;;;;;;;;4901665;28;20227;-83
2022/07/19 07:27:37;;;;;;;2.97;2.50;;;;;;;;;;4930807;29;20274;-83
2022/07/19 07:30:03;;;;;;;4.10;3.10;;;;;;;;;;4911910;29;20227;-83
2022/07/19 07:32:31;;;;;;;3.90;3.10;;;;;;;;;;4913551;29;20224;-82
2022/07/19 07:34:56;;;;;;;2.78;2.35;;;;;;;;;;4928450;29;20314;-83
2022/07/19 07:37:26;;;;;;;3.67;2.53;;;;;;;;;;4919416;28;20322;-83
2022/07/19 07:39:51;;;;;;;3.65;2.50;;;;;;;;;;4930697;29;20227;-82
2022/07/19 07:42:17;;;;;;;3.15;2.40;;;;;;;;;;4898518;28;20693;-84
2022/07/19 07:44:42;;;;;;;2.63;2.38;;;;;;;;;;4918670;29;20251;-83
2022/07/19 07:47:10;;;;;;;3.20;2.65;;;;;;;;;;4920155;28;20215;-82
2022/07/19 07:49:39;;;;;;;3.83;2.63;;;;;;;;;;4898847;29;20230;-83
2022/07/19 07:52:05;;;;;;;5.50;2.60;;;;;;;;;;4948174;28;20227;-82
2022/07/19 07:54:31;;;;;;;2.60;2.10;;;;;;;;;;4916294;29;20252;-83
2022/07/19 07:56:56;;;;;;;3.95;2.38;;;;;;;;;;4926907;29;20290;-82
2022/07/19 07:59:22;;;;;;;2.70;2.50;;;;;;;;;;4918832;28;20309;-83
2022/07/19 08:01:47;;;;;;;3.17;2.30;;;;;;;;;;4908324;29;20232;-83
2022/07/19 08:04:13;;;;;;;4.07;2.40;;;;;;;;;;4916644;28;20223;-84
2022/07/19 08:06:39;;;;;;;2.72;2.22;;;;;;;;;;4902374;29;20930;-82
2022/07/19 08:09:04;;;;;;;3.15;2.42;;;;;;;;;;4892796;29;20224;-83
2022/07/19 08:11:30;;;;;;;2.35;2.15;;;;;;;;;;4916232;29;20671;-83
2022/07/19 08:13:55;;;;;;;2.67;2.15;;;;;;;;;;4913911;29;20247;-83
2022/07/19 08:16:21;;;;;;;2.58;2.30;;;;;;;;;;4902662;28;20226;-84
2022/07/19 08:18:46;;;;;;;2.85;2.28;;;;;;;;;;4917199;29;20224;-82
2022/07/19 08:21:15;;;;;;;3.28;2.50;;;;;;;;;;4946044;28;20233;-83
2022/07/19 08:23:41;;;;;;;2.50;2.30;;;;;;;;;;4946226;28;20227;-84
2022/07/19 08:26:08;;;;;;;3.35;2.60;;;;;;;;;;4917894;29;20235;-84
2022/07/19 08:28:33;;;;;;;3.05;2.42;;;;;;;;;;4928583;29;20232;-84
2022/07/19 08:30:59;;;;;;;2.20;2.10;;;;;;;;;;4915336;29;20272;-83
2022/07/19 08:33:24;;;;;;;2.40;2.17;;;;;;;;;;4914934;29;20282;-83
2022/07/19 08:35:50;;;;;;;4.53;2.45;;;;;;;;;;4934882;29;20291;-82
2022/07/19 08:38:43;;;;;;;4.50;2.38;;;;;;;;;;4933992;29;20215;-83
2022/07/19 08:41:12;;;;;;;2.50;2.30;;;;;;;;;;4913815;28;20302;-82
2022/07/19 08:43:44;;;;;;;3.60;2.20;;;;;;;;;;4919179;29;20228;-83
2022/07/19 08:46:13;;;;;;;3.30;2.30;;;;;;;;;;4918428;28;20226;-84
2022/07/19 08:48:39;;;;;;;2.88;2.20;;;;;;;;;;4918948;29;20235;-84
2022/07/19 08:51:07;;;;;;;3.13;2.22;;;;;;;;;;4922624;29;20254;-83
2022/07/19 08:53:32;;;;;;;2.90;2.40;;;;;;;;;;4940504;29;20239;-83
2022/07/19 08:55:59;;;;;;;3.40;1.90;;;;;;;;;;4918035;29;20242;-82
2022/07/19 08:58:27;;;;;;;1.60;1.50;;;;;;;;;;4914222;28;20231;-83
2022/07/19 09:00:52;;;;;;;2.15;1.40;;;;;;;;;;4924275;29;20235;-82
2022/07/19 09:03:18;;;;;;;1.80;1.60;;;;;;;;;;4916864;29;20291;-83
2022/07/19 09:05:43;;;;;;;2.00;1.80;;;;;;;;;;4937234;29;20849;-84
2022/07/19 09:08:16;;;;;;;2.30;1.92;;;;;;;;;;4917015;28;20231;-83
2022/07/19 09:11:14;;;;;;;2.03;1.90;;;;;;;;;;4935496;29;20254;-84
2022/07/19 09:13:34;;;;;;;1.80;1.70;;;;;;;;;;4926681;29;20291;-83
2022/07/19 09:15:59;;;;;;;1.80;1.70;;;;;;;;;;4909305;29;20219;-82
2022/07/19 09:18:30;;;;;;;2.83;1.70;;;;;;;;;;4923849;29;20219;-82
2022/07/19 09:21:00;;;;;;;1.88;1.70;;;;;;;;;;4936044;29;20239;-84
2022/07/19 09:23:26;;;;;;;2.67;1.92;;;;;;;;;;4893867;29;20294;-84
2022/07/19 09:25:53;;;;;;;3.63;2.13;;;;;;;;;;4915560;29;20697;-84
2022/07/19 09:28:24;;;;;;;2.40;1.85;;;;;;;;;;4914756;29;20228;-83
2022/07/19 09:30:55;;;;;;;4.30;2.03;;;;;;;;;;4917112;29;20232;-83
2022/07/19 09:33:28;;;;;;;2.17;1.98;;;;;;;;;;4922291;28;20242;-83
2022/07/19 09:35:56;;;;;;;2.83;1.98;;;;;;;;;;4919920;29;20652;-83
2022/07/19 09:38:28;;;;;;;2.17;1.95;;;;;;;;;;4901505;28;20215;-83
2022/07/19 09:41:10;;;;;;;2.50;1.50;;;;;;;;;;4930097;29;20260;-84
2022/07/19 09:43:58;;;;;;;1.95;1.67;;;;;;;;;;4919241;29;20220;-83
2022/07/19 09:46:37;;;;;;;1.70;1.60;;;;;;;;;;4918795;28;20223;-85
2022/07/19 09:49:09;;;;;;;2.78;1.40;;;;;;;;;;4933586;28;20706;-82
2022/07/19 09:51:38;;;;;;;3.97;1.25;;;;;;;;;;4940431;29;20254;-79
2022/07/19 09:54:07;;;;;;;2.10;1.40;;;;;;;;;;4945131;28;20255;-82
2022/07/19 10:00:28;;;;;;;2.30;1.48;;;;;;;;;;4943895;28;20226;-84
2022/07/19 10:02:58;;;;;;;4.43;1.48;;;;;;;;;;4931532;29;20228;-84
2022/07/19 10:05:27;;;;;;;1.80;1.60;;;;;;;;;;4905399;28;20291;-83
2022/07/19 10:07:53;;;;;;;1.60;1.50;;;;;;;;;;4917387;29;20226;-84
2022/07/19 10:10:25;;;;;;;1.60;1.33;;;;;;;;;;4901233;28;20227;-82
2022/07/19 10:12:51;;;;;;;3.25;1.83;;;;;;;;;;4905049;29;20700;-83
2022/07/19 10:22:58;;;;;;;2.72;1.40;;;;;;;;;;4962423;23;20229;-72
2022/07/19 10:25:24;;;;;;;1.60;1.38;;;;;;;;;;4896858;29;20238;-75
2022/07/19 10:27:57;;;;;;;2.25;1.40;;;;;;;;;;4891809;29;20232;-75
2022/07/19 10:30:24;;;;;;;3.63;1.40;;;;;;;;;;4916582;29;20232;-73
2022/07/19 10:32:52;;;;;;;1.48;1.38;;;;;;;;;;4876646;28;20287;-75
2022/07/19 10:35:18;;;;;;;1.48;1.38;;;;;;;;;;4887303;29;20302;-74
2022/07/19 10:37:53;;;;;;;2.63;1.60;;;;;;;;;;4918245;29;20377;-73
2022/07/19 10:40:42;;;;;;;1.10;1.10;;;;;;;;;;4912945;29;20223;-74
2022/07/19 10:43:11;;;;;;;4.30;1.30;;;;;;;;;;4917545;29;20242;-77
2022/07/19 10:45:40;;;;;;;2.42;1.33;;;;;;;;;;4931599;29;20681;-77
2022/07/19 10:48:10;;;;;;;2.53;1.63;;;;;;;;;;4888801;29;20716;-76
2022/07/19 10:50:48;;;;;;;1.23;1.20;;;;;;;;;;4908277;29;20275;-76
2022/07/19 10:53:42;;;;;;;1.33;1.23;;;;;;;;;;4912536;28;20230;-72
2022/07/19 10:56:27;;;;;;;1.98;1.20;;;;;;;;;;4911797;29;20724;-69
2022/07/19 10:58:59;;;;;;;1.92;1.10;;;;;;;;;;4912566;29;20231;-74
2022/07/19 11:01:27;;;;;;;1.60;1.10;;;;;;;;;;4913551;29;20230;-74
2022/07/19 11:03:54;;;;;;;1.88;1.20;;;;;;;;;;4901472;29;20220;-75
2022/07/19 11:06:25;;;;;;;1.85;1.08;;;;;;;;;;4906206;29;20242;-76
2022/07/19 11:08:55;;;;;;;1.45;1.00;;;;;;;;;;4939727;29;20312;-75
2022/07/19 11:11:20;;;;;;;1.20;1.10;;;;;;;;;;4920963;28;20219;-74
2022/07/19 11:13:50;;;;;;;1.42;1.17;;;;;;;;;;4898434;29;20249;-75
2022/07/19 11:16:18;;;;;;;1.60;1.30;;;;;;;;;;4911587;28;20265;-77
2022/07/19 11:18:43;;;;;;;1.20;1.10;;;;;;;;;;4896415;29;20254;-74
2022/07/19 11:21:12;;;;;;;1.85;1.25;;;;;;;;;;4944472;28;20214;-75
2022/07/19 11:23:39;;;;;;;1.65;1.42;;;;;;;;;;4898806;29;20227;-73
2022/07/19 11:26:28;;;;;;;1.27;1.23;;;;;;;;;;4896272;29;20235;-74
2022/07/19 11:28:53;;;;;;;1.42;1.33;;;;;;;;;;4914933;29;20238;-75
2022/07/19 11:31:24;;;;;;;2.35;1.20;;;;;;;;;;4931137;28;20592;-74
2022/07/19 11:33:52;;;;;;;3.95;1.20;;;;;;;;;;4900217;29;20695;-75
2022/07/19 11:36:18;;;;;;;1.23;1.13;;;;;;;;;;4919408;29;20231;-78
2022/07/19 11:38:49;;;;;;;1.55;1.00;;;;;;;;;;4917690;29;20222;-78
2022/07/19 11:41:27;;;;;;;1.60;1.50;;;;;;;;;;4897996;29;20632;-76
2022/07/19 11:44:11;;;;;;;1.90;1.60;;;;;;;;;;4882850;29;20790;-72
2022/07/19 11:46:41;;;;;;;1.98;1.30;;;;;;;;;;4940060;28;20290;-73
2022/07/19 11:49:08;;;;;;;3.33;1.40;;;;;;;;;;4889818;29;20334;-74
2022/07/19 11:51:35;;;;;;;1.58;1.48;;;;;;;;;;4917828;29;20251;-77
2022/07/19 11:54:02;;;;;;;1.70;1.42;;;;;;;;;;4888251;29;20236;-73
2022/07/19 11:56:31;;;;;;;2.30;1.30;;;;;;;;;;4920437;29;20726;-73
2022/07/19 11:59:02;;;;;;;1.52;1.42;;;;;;;;;;4904931;29;20227;-76
2022/07/19 12:01:35;;;;;;;1.50;1.40;;;;;;;;;;4901083;29;20666;-75
2022/07/19 12:04:04;;;;;;;4.40;1.85;;;;;;;;;;4923781;29;20230;-73
2022/07/19 12:06:39;;;;;;;1.65;1.33;;;;;;;;;;4909065;29;20240;-75
2022/07/19 12:09:06;;;;;;;2.63;1.70;;;;;;;;;;4922077;29;20228;-77
2022/07/19 12:11:38;;;;;;;1.50;1.40;;;;;;;;;;4910790;29;20317;-73
2022/07/19 12:14:19;;;;;;;1.60;1.50;;;;;;;;;;4923551;28;20227;-76
2022/07/19 12:16:47;;;;;;;1.60;1.50;;;;;;;;;;4897424;29;20720;-76
2022/07/19 12:19:14;;;;;;;1.65;1.38;;;;;;;;;;4922836;28;20215;-74
2022/07/19 12:21:42;;;;;;;2.33;1.65;;;;;;;;;;4917721;29;20310;-75
2022/07/19 12:24:16;;;;;;;2.13;1.92;;;;;;;;;;4906356;29;20234;-73
2022/07/19 12:26:53;;;;;;;2.58;1.60;;;;;;;;;;4940338;28;20606;-73
2022/07/19 12:29:34;;;;;;;2.70;1.98;;;;;;;;;;4936607;28;20254;-75
2022/07/19 12:32:07;;;;;;;3.15;1.92;;;;;;;;;;4921150;28;20231;-75
2022/07/19 12:35:11;;;;;;;2.97;1.95;;;;;;;;;;4923692;29;20303;-76
2022/07/19 12:37:47;;;;;;;3.58;2.05;;;;;;;;;;4917936;29;20227;-76
2022/07/19 12:40:24;;;;;;;4.38;2.00;;;;;;;;;;4907448;28;20235;-75
2022/07/19 12:42:59;;;;;;;3.03;2.30;;;;;;;;;;4919797;29;20295;-75
2022/07/19 12:45:29;;;;;;;2.08;1.98;;;;;;;;;;4905556;29;20255;-74
2022/07/19 12:47:59;;;;;;;2.10;2.00;;;;;;;;;;4925679;29;20223;-74
2022/07/19 12:50:35;;;;;;;2.58;2.00;;;;;;;;;;4932754;29;20615;-74
2022/07/19 12:53:05;;;;;;;3.67;2.10;;;;;;;;;;4936244;28;20226;-76
2022/07/19 12:55:31;;;;;;;4.20;2.55;;;;;;;;;;4882067;29;20231;-75
2022/07/19 12:57:57;;;;;;;2.50;2.03;;;;;;;;;;4921807;29;20227;-75
2022/07/19 13:00:23;;;;;;;1.95;1.77;;;;;;;;;;4908154;29;20231;-74
2022/07/19 13:02:51;;;;;;;2.63;2.00;;;;;;;;;;4938998;29;20222;-75
2022/07/19 13:05:17;;;;;;;2.10;1.80;;;;;;;;;;4916508;29;20228;-74
2022/07/19 13:07:42;;;;;;;4.85;2.13;;;;;;;;;;4921196;29;20249;-74
2022/07/19 13:10:12;;;;;;;2.83;2.13;;;;;;;;;;4915018;29;20218;-74
2022/07/19 13:12:38;;;;;;;2.00;1.83;;;;;;;;;;4919678;29;20298;-73
2022/07/19 13:15:04;;;;;;;2.40;1.92;;;;;;;;;;4902428;28;20227;-73
2022/07/19 13:17:31;;;;;;;2.97;1.90;;;;;;;;;;4909155;29;20226;-73
2022/07/19 13:19:58;;;;;;;2.10;2.00;;;;;;;;;;4919501;29;20232;-73
2022/07/19 13:22:24;;;;;;;2.50;2.08;;;;;;;;;;4906754;29;20256;-76
2022/07/19 13:24:54;;;;;;;3.72;2.28;;;;;;;;;;4892022;28;20227;-73
2022/07/19 13:27:20;;;;;;;2.42;2.20;;;;;;;;;;4907362;29;20606;-73
2022/07/19 13:29:48;;;;;;;3.42;2.20;;;;;;;;;;4939298;29;20263;-76
2022/07/19 13:32:14;;;;;;;5.80;2.17;;;;;;;;;;4899450;29;20224;-72
2022/07/19 13:34:42;;;;;;;3.85;2.08;;;;;;;;;;4912637;29;20752;-72
2022/07/19 13:37:07;;;;;;;2.22;2.03;;;;;;;;;;4901304;29;20902;-73
2022/07/19 13:39:39;;;;;;;3.38;2.30;;;;;;;;;;4932961;29;20239;-73
2022/07/19 13:42:04;;;;;;;4.63;2.33;;;;;;;;;;4916617;29;20228;-72
2022/07/19 13:44:30;;;;;;;2.20;2.00;;;;;;;;;;4932796;29;20275;-72
2022/07/19 13:46:57;;;;;;;2.78;2.15;;;;;;;;;;4924500;29;20227;-74
2022/07/19 13:49:23;;;;;;;2.45;2.10;;;;;;;;;;4924654;28;20250;-73
2022/07/19 13:51:49;;;;;;;3.55;2.40;;;;;;;;;;4896297;29;20266;-72
2022/07/19 13:54:18;;;;;;;2.97;2.25;;;;;;;;;;4904629;29;20267;-71
2022/07/19 13:56:43;;;;;;;3.22;2.22;;;;;;;;;;4905054;29;20258;-72
2022/07/19 13:59:12;;;;;;;2.83;2.50;;;;;;;;;;4924480;28;20706;-72
2022/07/19 14:01:37;;;;;;;2.70;2.40;;;;;;;;;;4925536;29;20581;-73
2022/07/19 14:04:03;;;;;;;4.28;2.45;;;;;;;;;;4900479;29;20249;-74
2022/07/19 14:06:31;;;;;;;2.95;2.50;;;;;;;;;;4920283;29;20226;-74
2022/07/19 14:09:01;;;;;;;4.18;2.63;;;;;;;;;;4913728;29;20242;-72
2022/07/19 14:11:29;;;;;;;2.67;2.30;;;;;;;;;;4903880;29;20255;-73
2022/07/19 14:13:58;;;;;;;3.13;2.22;;;;;;;;;;4936612;29;21018;-73
2022/07/19 14:16:23;;;;;;;2.70;2.50;;;;;;;;;;4884549;29;20234;-74
2022/07/19 14:18:49;;;;;;;3.78;2.47;;;;;;;;;;4923534;29;20222;-73
2022/07/19 14:21:14;;;;;;;4.28;2.42;;;;;;;;;;4915054;28;20262;-74
2022/07/19 14:23:43;;;;;;;2.47;2.20;;;;;;;;;;4916404;29;20227;-73
2022/07/19 14:26:11;;;;;;;2.13;1.95;;;;;;;;;;4904586;29;20237;-75
2022/07/19 14:28:36;;;;;;;2.58;2.30;;;;;;;;;;4916927;29;20225;-74
2022/07/19 14:31:02;;;;;;;3.25;2.10;;;;;;;;;;4937784;29;20227;-73
2022/07/19 14:33:27;;;;;;;2.83;2.00;;;;;;;;;;4917424;29;20230;-74
2022/07/19 14:35:53;;;;;;;4.93;2.25;;;;;;;;;;4906145;29;20222;-73
2022/07/19 14:38:19;;;;;;;2.80;1.88;;;;;;;;;;4906162;29;20925;-74
2022/07/19 14:40:44;;;;;;;2.20;2.00;;;;;;;;;;4904613;29;20225;-72
2022/07/19 14:43:10;;;;;;;3.95;2.20;;;;;;;;;;4917768;29;20238;-72
2022/07/19 14:45:37;;;;;;;6.45;2.10;;;;;;;;;;4924503;29;20224;-72
2022/07/19 14:48:07;;;;;;;4.32;2.38;;;;;;;;;;4935190;28;20220;-73
2022/07/19 14:50:37;;;;;;;2.47;2.00;;;;;;;;;;4933271;29;20698;-72
2022/07/19 14:53:09;;;;;;;3.45;2.20;;;;;;;;;;4893507;29;20243;-71
2022/07/19 14:55:36;;;;;;;3.95;2.40;;;;;;;;;;4906715;29;20870;-75
2022/07/19 14:58:07;;;;;;;4.32;2.10;;;;;;;;;;4904247;29;20740;-73
2022/07/19 15:00:35;;;;;;;2.67;1.95;;;;;;;;;;4907082;29;20227;-74
2022/07/19 15:03:04;;;;;;;2.17;1.95;;;;;;;;;;4896096;29;20224;-73
2022/07/19 15:05:34;;;;;;;2.85;2.00;;;;;;;;;;4922050;29;20231;-72
2022/07/19 15:08:03;;;;;;;2.38;2.17;;;;;;;;;;4918317;29;20231;-74
2022/07/19 15:10:28;;;;;;;2.60;2.20;;;;;;;;;;4902754;29;20217;-72